createdAt,value
2022-09-15T00:02:07.709Z,98777.75
2022-09-15T00:07:09.598Z,98776.41
2022-09-15T00:12:11.223Z,98779.41
2022-09-15T00:17:12.896Z,98783.53
2022-09-15T00:22:14.635Z,98789.19
2022-09-15T00:27:17.146Z,98779.09
2022-09-15T00:32:18.762Z,98781.75
2022-09-15T00:37:20.746Z,98776.94
2022-09-15T00:42:23.118Z,98780.06
2022-09-15T00:47:29.639Z,98786.50
2022-09-15T00:52:52.002Z,98785.69
2022-09-15T00:58:01.649Z,98790.16
2022-09-15T01:03:04.061Z,98791.94
2022-09-15T01:08:16.418Z,98789.13
2022-09-15T01:13:18.397Z,98802.91
2022-09-15T01:18:41.689Z,98804.69
2022-09-15T01:24:02.193Z,98812.59
2022-09-15T01:29:22.409Z,98805.59
2022-09-15T01:34:28.574Z,98806.91
2022-09-15T01:39:37.519Z,98808.25
2022-09-15T01:44:55.114Z,98820.16
2022-09-15T01:50:09.420Z,98815.59
2022-09-15T01:55:25.359Z,98806.28
2022-09-15T02:00:27.090Z,98815.38
2022-09-15T02:05:41.598Z,98824.59
2022-09-15T02:10:51.402Z,98817.03
2022-09-15T02:15:58.371Z,98827.75
2022-09-15T02:21:10.434Z,98826.91
2022-09-15T02:26:19.664Z,98836.94
2022-09-15T02:31:25.134Z,98831.66
2022-09-15T02:36:29.337Z,98834.13
2022-09-15T02:41:31.228Z,98831.50
2022-09-15T02:46:34.147Z,98823.28
2022-09-15T02:51:36.087Z,98831.03
2022-09-15T02:56:38.004Z,98824.19
2022-09-15T03:01:40.945Z,98832.09
2022-09-15T03:06:43.653Z,98829.88
2022-09-15T03:11:45.355Z,98842.91
2022-09-15T03:16:47.592Z,98851.28
2022-09-15T03:21:49.239Z,98863.13
2022-09-15T03:26:50.883Z,98865.38
2022-09-15T03:31:52.641Z,98867.31
2022-09-15T03:36:54.271Z,98873.78
2022-09-15T03:41:56.181Z,98884.34
2022-09-15T03:46:58.335Z,98891.47
2022-09-15T03:51:59.977Z,98899.22
2022-09-15T03:57:01.727Z,98894.84
2022-09-15T04:02:03.518Z,98896.13
2022-09-15T04:07:05.365Z,98904.59
2022-09-15T04:12:07.188Z,98908.56
2022-09-15T04:17:10.741Z,98905.38
2022-09-15T04:22:17.553Z,98910.31
2022-09-15T04:27:19.785Z,98908.94
2022-09-15T04:32:22.130Z,98910.84
2022-09-15T04:37:23.964Z,98914.44
2022-09-15T04:42:25.907Z,98925.41
2022-09-15T04:47:27.531Z,98932.81
2022-09-15T04:52:29.237Z,98931.09
2022-09-15T04:57:30.855Z,98933.63
2022-09-15T05:02:33.501Z,98941.44
2022-09-15T05:07:35.175Z,98934.41
2022-09-15T05:12:36.826Z,98938.31
2022-09-15T05:17:38.517Z,98942.19
2022-09-15T05:22:42.002Z,98946.00
2022-09-15T05:27:43.816Z,98951.41
2022-09-15T05:32:45.446Z,98959.22
2022-09-15T05:37:47.088Z,98973.06
2022-09-15T05:42:48.708Z,98971.44
2022-09-15T05:47:50.655Z,98972.69
2022-09-15T05:52:52.818Z,98975.81
2022-09-15T05:57:54.450Z,98977.72
2022-09-15T06:02:56.137Z,98974.66
2022-09-15T06:07:57.815Z,98988.50
2022-09-15T06:12:59.415Z,98992.53
2022-09-15T06:18:01.040Z,98996.66
2022-09-15T06:23:02.735Z,98991.13
2022-09-15T06:28:04.386Z,98999.59
2022-09-15T06:33:06.140Z,98999.84
2022-09-15T06:38:08.563Z,99005.59
2022-09-15T06:43:10.369Z,99011.56
2022-09-15T06:48:23.815Z,99008.56
2022-09-15T06:53:30.200Z,99023.88
2022-09-15T06:58:33.936Z,99022.34
2022-09-15T07:03:36.624Z,99021.97
2022-09-15T07:08:39.619Z,99027.59
2022-09-15T07:13:41.692Z,99035.69
2022-09-15T07:18:43.865Z,99033.72
2022-09-15T07:23:46.203Z,99037.03
2022-09-15T07:28:50.896Z,99052.34
2022-09-15T07:33:53.433Z,99049.34
2022-09-15T07:38:55.358Z,99051.53
2022-09-15T07:43:59.147Z,99052.38
2022-09-15T07:49:03.081Z,99047.81
2022-09-15T07:54:04.990Z,99059.00
2022-09-15T07:59:07.851Z,99059.16
2022-09-15T08:04:09.520Z,99078.28
2022-09-15T08:09:14.897Z,99075.91
2022-09-15T08:14:16.514Z,99077.28
2022-09-15T08:19:18.401Z,99078.94
2022-09-15T08:24:20.158Z,99082.53
2022-09-15T08:29:21.905Z,99079.75
2022-09-15T08:34:23.804Z,99084.59
2022-09-15T08:39:25.494Z,99088.41
2022-09-15T08:44:56.646Z,99095.28
2022-09-15T08:50:39.059Z,99088.06
2022-09-15T08:55:54.134Z,99095.84
2022-09-15T09:01:11.130Z,99088.94
2022-09-15T09:06:43.425Z,99099.81
2022-09-15T09:12:17.421Z,99100.19
2022-09-15T09:17:39.378Z,99097.84
2022-09-15T09:22:44.639Z,99099.69
2022-09-15T09:27:47.712Z,99098.06
2022-09-15T09:33:20.662Z,99087.56
2022-09-15T09:38:35.367Z,99103.63
2022-09-15T09:43:37.072Z,99101.63
2022-09-15T09:48:39.959Z,99100.13
2022-09-15T09:53:42.576Z,99095.28
2022-09-15T09:58:45.029Z,99101.38
2022-09-15T10:03:47.381Z,99107.09
2022-09-15T10:09:03.638Z,99094.81
2022-09-15T10:14:06.239Z,99092.66
2022-09-15T10:19:14.302Z,99096.25
2022-09-15T10:24:34.678Z,99092.06
2022-09-15T10:29:39.887Z,99092.91
2022-09-15T10:34:41.606Z,99085.66
2022-09-15T10:39:56.185Z,99090.38
2022-09-15T10:45:14.398Z,99087.53
2022-09-15T10:50:45.119Z,99098.50
2022-09-15T10:55:56.192Z,99106.25
2022-09-15T11:01:32.447Z,99094.19
2022-09-15T11:06:52.664Z,99105.06
2022-09-15T11:12:06.624Z,99107.91
2022-09-15T11:17:11.361Z,99114.13
2022-09-15T11:22:22.556Z,99119.28
2022-09-15T11:27:28.163Z,99127.28
2022-09-15T11:33:18.199Z,99120.75
2022-09-15T11:38:43.080Z,99127.06
2022-09-15T11:44:26.775Z,99126.56
2022-09-15T11:49:53.849Z,99125.75
2022-09-15T11:55:20.355Z,99136.31
2022-09-15T12:00:25.987Z,99128.94
2022-09-15T12:05:39.891Z,99122.69
2022-09-15T12:10:48.992Z,99129.94
2022-09-15T12:15:52.484Z,99134.78
2022-09-15T12:21:07.260Z,99132.53
2022-09-15T12:26:23.121Z,99133.31
2022-09-15T12:31:47.456Z,99127.69
2022-09-15T12:36:53.513Z,99138.53
2022-09-15T12:42:04.154Z,99126.53
2022-09-15T12:47:19.396Z,99134.31
2022-09-15T12:52:23.994Z,99139.81
2022-09-15T12:57:37.091Z,99133.06
2022-09-15T13:08:30.177Z,99135.09
2022-09-15T13:14:04.136Z,99137.81
2022-09-15T13:19:27.232Z,99143.88
2022-09-15T13:24:50.460Z,99141.75
2022-09-15T13:30:09.328Z,99150.66
2022-09-15T13:35:43.854Z,99142.41
2022-09-15T13:40:54.650Z,99137.31
2022-09-15T13:46:28.587Z,99124.31
2022-09-15T13:51:32.862Z,99119.44
2022-09-15T13:56:41.557Z,99106.28
2022-09-15T14:01:44.966Z,99106.41
2022-09-15T14:06:50.649Z,99109.97
2022-09-15T14:11:56.524Z,99104.78
2022-09-15T14:16:58.294Z,99102.16
2022-09-15T14:22:02.625Z,99101.63
2022-09-15T14:27:09.590Z,99105.50
2022-09-15T14:32:17.595Z,99117.09
2022-09-15T14:37:29.746Z,99108.78
2022-09-15T14:42:37.371Z,99110.84
2022-09-15T14:47:43.393Z,99105.69
2022-09-15T14:52:53.254Z,99111.06
2022-09-15T14:57:58.296Z,99105.75
2022-09-15T15:03:32.526Z,99101.09
2022-09-15T15:08:38.785Z,99098.03
2022-09-15T15:13:44.376Z,99095.59
2022-09-15T15:18:47.272Z,99100.31
2022-09-15T15:23:51.380Z,99116.94
2022-09-15T15:28:55.921Z,99108.78
2022-09-15T15:34:08.553Z,99113.47
2022-09-15T15:39:24.822Z,99109.84
2022-09-15T15:44:29.991Z,99123.00
2022-09-15T15:49:33.725Z,99126.16
2022-09-15T15:54:35.508Z,99127.34
2022-09-15T15:59:42.505Z,99132.00
2022-09-15T16:04:46.430Z,99134.31
2022-09-15T16:10:02.229Z,99128.03
2022-09-15T16:15:16.948Z,99131.19
2022-09-15T16:20:34.132Z,99130.63
2022-09-15T16:25:45.903Z,99138.56
2022-09-15T16:30:59.219Z,99135.59
2022-09-15T16:36:07.083Z,99137.75
2022-09-15T16:41:15.831Z,99139.56
2022-09-15T16:46:20.603Z,99146.34
2022-09-15T16:51:29.755Z,99143.50
2022-09-15T16:56:33.244Z,99154.56
2022-09-15T17:01:35.068Z,99152.03
2022-09-15T17:06:36.901Z,99155.28
2022-09-15T17:11:38.652Z,99170.22
2022-09-15T17:16:40.356Z,99182.88
2022-09-15T17:21:42.061Z,99202.91
2022-09-15T17:26:43.723Z,99211.63
2022-09-15T17:31:45.426Z,99218.72
2022-09-15T17:36:47.088Z,99207.53
2022-09-15T17:41:49.192Z,99205.88
2022-09-15T17:46:50.926Z,99207.06
2022-09-15T17:51:52.795Z,99206.31
2022-09-15T17:56:54.710Z,99205.63
2022-09-15T18:01:57.108Z,99204.19
2022-09-15T18:06:59.292Z,99213.84
2022-09-15T18:12:01.565Z,99213.22
2022-09-15T18:17:03.370Z,99212.94
2022-09-15T18:22:05.167Z,99223.25
2022-09-15T18:27:07.785Z,99220.38
2022-09-15T18:32:09.593Z,99228.69
2022-09-15T18:37:12.315Z,99236.22
2022-09-15T18:42:14.050Z,99246.09
2022-09-15T18:47:15.785Z,99250.50
2022-09-15T18:52:17.629Z,99263.00
2022-09-15T18:57:20.129Z,99253.59
2022-09-15T19:02:37.455Z,99263.50
2022-09-15T19:07:39.376Z,99267.53
2022-09-15T19:12:41.106Z,99264.72
2022-09-15T19:17:43.766Z,99265.88
2022-09-15T19:22:46.144Z,99276.16
2022-09-15T19:27:49.067Z,99267.56
2022-09-15T19:32:51.828Z,99260.47
2022-09-15T19:37:53.741Z,99262.59
2022-09-15T19:42:55.432Z,99268.22
2022-09-15T19:47:57.174Z,99272.81
2022-09-15T19:52:59.735Z,99279.22
2022-09-15T19:58:01.544Z,99280.63
2022-09-15T20:03:03.627Z,99274.19
2022-09-15T20:08:05.341Z,99281.88
2022-09-15T20:13:07.033Z,99274.91
2022-09-15T20:18:09.165Z,99273.97
2022-09-15T20:23:11.077Z,99279.22
2022-09-15T20:28:12.731Z,99283.13
2022-09-15T20:33:14.724Z,99280.63
2022-09-15T20:38:16.364Z,99288.38
2022-09-15T20:43:18.045Z,99287.13
2022-09-15T20:48:19.704Z,99293.09
2022-09-15T20:53:21.402Z,99292.00
2022-09-15T20:58:23.136Z,99292.00
2022-09-15T21:03:24.797Z,99287.00
2022-09-15T21:08:27.278Z,99295.31
2022-09-15T21:13:30.945Z,99301.16
2022-09-15T21:18:34.553Z,99301.69
2022-09-15T21:23:42.773Z,99298.66
2022-09-15T21:28:45.119Z,99307.13
2022-09-15T21:33:47.910Z,99312.13
2022-09-15T21:38:51.623Z,99309.47
2022-09-15T21:43:55.165Z,99322.13
2022-09-15T21:48:59.069Z,99327.25
2022-09-15T21:54:00.877Z,99325.59
2022-09-15T21:59:03.286Z,99332.66
2022-09-15T22:04:07.165Z,99330.97
2022-09-15T22:09:13.143Z,99331.38
2022-09-15T22:14:14.950Z,99333.72
2022-09-15T22:19:16.609Z,99332.28
2022-09-15T22:24:18.850Z,99329.50
2022-09-15T22:29:48.509Z,99337.94
2022-09-15T22:34:50.175Z,99345.44
2022-09-15T22:39:59.615Z,99339.34
2022-09-15T22:45:01.353Z,99345.94
2022-09-15T22:50:03.036Z,99346.22
2022-09-15T22:55:05.077Z,99346.03
2022-09-15T23:00:07.716Z,99347.69
2022-09-15T23:05:10.701Z,99356.19
2022-09-15T23:10:12.332Z,99355.03
2022-09-15T23:15:14.173Z,99346.25
2022-09-15T23:20:15.894Z,99349.44
2022-09-15T23:25:17.591Z,99341.22
2022-09-15T23:30:19.269Z,99348.22
2022-09-15T23:35:20.867Z,99347.66
2022-09-15T23:40:22.720Z,99337.88
2022-09-15T23:45:24.414Z,99346.75
2022-09-15T23:50:26.615Z,99341.31
2022-09-15T23:55:29.073Z,99341.16
